Share

Sitka, AK

Sitka Rocky Gutierrez (PASI) Elev 20 ft | 57.05 °N, 135.36 °W | Change Station

Current weather conditions updated 4 minutes ago

Overcast
Overcast
47 °F
Feels Like 47 °F
N
8
Wind Variable Wind from East
Sunrise 5:41 AM
Sunset 8:22 PM
Moon Waning Gibbous

Tomorrow is forecast to be Much Cooler than today. Light rain early.

Pressure 29.78 in
Visibility 10.0 miles
Clouds Overcast 5000 ft
Dew Point 36 °F
Humidity 66%
Rainfall 0.07 in
Snow Depth Not available.
UV 0 out of 16
Pollen Not available.
Air Quality Not available.
Flu Activity Sporadic
METAR PASI 210653Z 10007KT 10SM OVC050 08/02 A2977 RMK AO2 RAB16E26 SLP082 P0000 T00830022

More Conditions Fewer Conditions

Pressure 29.78 in
Visibility 10.0 miles
Clouds Overcast 5000 ft
Dew Point 36 °F
Humidity 66%
Rainfall 0.07 in
Snow Depth Not available.
UV 0 out of 16
Pollen Not available.
Air Quality Not available.
Flu Activity Sporadic
METAR PASI 210653Z 10007KT 10SM OVC050 08/02 A2977 RMK AO2 RAB16E26 SLP082 P0000 T00830022

More Conditions Fewer Conditions

10-Day Weather Forecast

Almanac

Astronomy

Apr. 20, 2014 Rise Set
Actual Time 5:41 AM AKDT 8:22 PM AKDT
Civil Twilight 4:58 AM AKDT 9:05 PM AKDT
Nautical Twilight 4:02 AM AKDT 10:01 PM AKDT
Astronomical Twilight 2:49 AM AKDT 11:16 PM AKDT
Moon 1:32 AM AKDT (4/20) 9:46 AM AKDT (4/20)
Length of Visible Light 16h 06m
Length of Day
14h 41m
Tomorrow will be 4m 40s longer.
Waning Gibbous, 62% of the Moon is Illuminated
Apr 21
Waning Gibbous
Apr 22
Last Quarter
Apr 29
New
May 6
First Quarter
May 14
Full

Community

  • Snowy Robin
    Snowy Robin
  • Sun Pillar and Geese
    Sun Pillar and Geese
  • Showers on the Way
    Showers on the Way
  • Easter Morning Fog
    Easter Morning Fog
  • Easter Dance
    Easter Dance

WunderPhotos

Upload Photos

1,703,570 photos uploaded!

WunderBlogs® & News

Nearby

Snow Depth

Station Depth Elevation
Long Lake 96 in 820 ft
Upper Tsaina River 52 in 1750 ft
Moraine 8 in 2100 ft
Grouse Creek Divide 24 in 700 ft
Grandview 34 in 1100 ft

Coastal Water Temperatures

Place Temperature
No Stations Reporting

Earthquake Activity

City Distance Mag. Time & Date
No recent earthquake activity has been reported nearby.
Minimum magnitude displayed is 2.5.

Nearby Weather Stations

Station Location Temp. Windchill Dew Point Humidity Wind Precip. Elev Updated Type
CRN USGS SITKA MAGNETIC SITKA 1 NE AK , Sitka, AK 44 °F 44 °F - - North  at  - 0.00 in / hr 78 ft 10:15 PM AKDT MADIS

Show More Stations Show Fewer Stations

What do you think?

We're not finished. Please let us know what you like, what you don't like, and what you are still missing.